createdAt,value
2019-03-30T00:00:38.550Z,7.70
2019-03-30T00:03:10.050Z,7.60
2019-03-30T00:05:41.642Z,7.40
2019-03-30T00:08:13.433Z,7.10
2019-03-30T00:13:15.399Z,6.80
2019-03-30T00:15:47.181Z,6.80
2019-03-30T00:18:18.717Z,6.70
2019-03-30T00:20:50.205Z,6.60
2019-03-30T00:23:21.698Z,6.50
2019-03-30T00:25:53.266Z,6.40
2019-03-30T00:28:24.826Z,6.20
2019-03-30T00:30:56.350Z,6.00
2019-03-30T00:35:58.138Z,5.60
2019-03-30T00:38:29.636Z,5.60
2019-03-30T00:41:01.133Z,5.60
2019-03-30T00:43:32.626Z,5.60
2019-03-30T00:46:04.154Z,5.50
2019-03-30T00:48:35.649Z,5.50
2019-03-30T00:51:07.180Z,5.50
2019-03-30T00:53:38.665Z,5.60
2019-03-30T00:56:10.196Z,5.50
2019-03-30T00:58:41.697Z,5.50
2019-03-30T01:01:13.198Z,5.50
2019-03-30T01:03:44.771Z,5.40
2019-03-30T01:06:16.265Z,5.40
2019-03-30T01:08:47.767Z,5.30
2019-03-30T01:11:19.294Z,5.30
2019-03-30T01:13:51.095Z,5.10
2019-03-30T01:16:22.621Z,5.00
2019-03-30T01:18:54.178Z,5.00
2019-03-30T01:21:25.757Z,5.00
2019-03-30T01:23:57.539Z,5.10
2019-03-30T01:28:59.413Z,5.10
2019-03-30T01:31:31.255Z,5.10
2019-03-30T01:34:02.794Z,5.10
2019-03-30T01:36:34.554Z,5.00
2019-03-30T01:39:07.374Z,4.90
2019-03-30T01:41:38.867Z,4.90
2019-03-30T01:44:10.391Z,4.80
2019-03-30T01:46:41.879Z,4.80
2019-03-30T01:49:13.974Z,4.70
2019-03-30T01:54:16.479Z,4.80
2019-03-30T01:56:47.974Z,4.80
2019-03-30T01:59:19.498Z,4.80
2019-03-30T02:01:50.990Z,4.70
2019-03-30T02:04:22.481Z,4.70
2019-03-30T02:06:54.005Z,4.60
2019-03-30T02:09:25.558Z,4.60
2019-03-30T02:11:57.054Z,4.60
2019-03-30T02:14:28.582Z,4.60
2019-03-30T02:17:00.073Z,4.60
2019-03-30T02:19:31.667Z,4.50
2019-03-30T02:22:03.170Z,4.40
2019-03-30T02:24:34.674Z,4.30
2019-03-30T02:27:06.209Z,4.20
2019-03-30T02:29:37.698Z,4.10
2019-03-30T02:32:09.323Z,4.00
2019-03-30T02:34:40.827Z,4.00
2019-03-30T02:37:12.364Z,3.90
2019-03-30T02:39:44.123Z,4.00
2019-03-30T02:42:17.187Z,4.10
2019-03-30T02:44:48.717Z,4.10
2019-03-30T02:47:20.500Z,4.20
2019-03-30T02:49:52.072Z,4.20
2019-03-30T02:52:23.578Z,4.20
2019-03-30T02:54:55.097Z,4.10
2019-03-30T02:57:26.587Z,4.00
2019-03-30T02:59:59.051Z,3.90
2019-03-30T03:02:30.587Z,3.90
2019-03-30T03:05:02.085Z,3.90
2019-03-30T03:07:33.775Z,3.90
2019-03-30T03:10:05.539Z,3.80
2019-03-30T03:12:37.106Z,3.80
2019-03-30T03:15:08.903Z,3.80
2019-03-30T03:17:40.436Z,3.70
2019-03-30T03:20:12.256Z,3.70
2019-03-30T03:22:44.039Z,3.60
2019-03-30T03:27:45.842Z,3.60
2019-03-30T03:30:18.598Z,3.50
2019-03-30T03:32:50.095Z,3.50
2019-03-30T03:35:21.872Z,3.50
2019-03-30T03:37:53.630Z,3.40
2019-03-30T03:40:25.130Z,3.40
2019-03-30T03:42:56.635Z,3.40
2019-03-30T03:45:28.190Z,3.40
2019-03-30T03:47:59.679Z,3.30
2019-03-30T03:50:44.876Z,3.30
2019-03-30T03:53:17.218Z,3.30
2019-03-30T03:55:49.048Z,3.30
2019-03-30T03:58:23.603Z,3.30
2019-03-30T04:00:58.065Z,3.30
2019-03-30T04:03:32.861Z,3.30
2019-03-30T04:06:08.478Z,3.30
2019-03-30T04:08:41.986Z,3.30
2019-03-30T04:11:15.942Z,3.30
2019-03-30T04:13:49.736Z,3.30
2019-03-30T04:16:21.227Z,3.20
2019-03-30T04:18:52.995Z,3.20
2019-03-30T04:21:42.445Z,3.30
2019-03-30T04:23:57.663Z,3.20
2019-03-30T04:26:29.198Z,3.20
2019-03-30T04:29:00.674Z,3.10
2019-03-30T04:31:32.218Z,3.10
2019-03-30T04:34:03.716Z,3.10
2019-03-30T04:36:35.990Z,3.10
2019-03-30T04:39:07.458Z,3.00
2019-03-30T04:41:38.962Z,3.00
2019-03-30T04:44:10.522Z,3.00
2019-03-30T04:46:42.327Z,3.00
2019-03-30T04:49:15.105Z,3.00
2019-03-30T04:51:57.327Z,3.00
2019-03-30T04:54:20.094Z,3.10
2019-03-30T04:56:51.592Z,3.20
2019-03-30T04:59:23.129Z,3.20
2019-03-30T05:01:54.618Z,3.20
2019-03-30T05:04:26.150Z,3.20
2019-03-30T05:06:57.714Z,3.20
2019-03-30T05:09:29.914Z,3.30
2019-03-30T05:14:31.801Z,3.30
2019-03-30T05:17:03.379Z,3.30
2019-03-30T05:19:35.847Z,3.40
2019-03-30T05:24:39.409Z,3.50
2019-03-30T05:27:12.445Z,3.60
2019-03-30T05:29:44.526Z,3.70
2019-03-30T05:32:16.141Z,3.80
2019-03-30T05:34:47.562Z,3.90
2019-03-30T05:37:19.099Z,3.90
2019-03-30T05:39:50.600Z,3.90
2019-03-30T05:42:22.279Z,4.00
2019-03-30T05:44:53.794Z,4.20
2019-03-30T05:47:25.282Z,4.30
2019-03-30T05:49:56.814Z,4.60
2019-03-30T05:52:28.597Z,4.80
2019-03-30T05:55:00.235Z,5.10
2019-03-30T05:57:32.273Z,5.40
2019-03-30T06:00:03.941Z,5.70
2019-03-30T06:05:06.310Z,6.20
2019-03-30T06:07:37.834Z,6.30
2019-03-30T06:10:12.631Z,6.60
2019-03-30T06:12:44.927Z,6.80
2019-03-30T06:15:16.751Z,6.90
2019-03-30T06:17:48.549Z,7.00
2019-03-30T06:20:20.418Z,7.20
2019-03-30T06:22:52.282Z,7.50
2019-03-30T06:25:23.996Z,7.90
2019-03-30T06:27:55.593Z,8.20
2019-03-30T06:30:28.202Z,8.50
2019-03-30T06:33:00.258Z,9.00
2019-03-30T06:35:32.066Z,9.20
2019-03-30T06:38:03.825Z,9.60
2019-03-30T06:40:35.527Z,10.00
2019-03-30T06:43:07.891Z,10.20
2019-03-30T06:45:39.754Z,10.30
2019-03-30T06:48:13.692Z,10.70
2019-03-30T06:50:45.702Z,11.30
2019-03-30T06:55:48.045Z,12.00
2019-03-30T06:58:20.110Z,12.30
2019-03-30T07:05:55.363Z,13.30
2019-03-30T07:08:29.726Z,13.20
2019-03-30T07:11:04.306Z,13.20
2019-03-30T07:13:40.251Z,13.10
2019-03-30T07:16:11.782Z,13.00
2019-03-30T07:18:45.270Z,13.70
2019-03-30T07:21:16.791Z,14.60
2019-03-30T07:26:18.614Z,16.80
2019-03-30T07:28:50.129Z,17.20
2019-03-30T07:31:21.618Z,17.70
2019-03-30T07:36:23.510Z,18.90
2019-03-30T07:38:55.022Z,18.90
2019-03-30T07:41:26.575Z,18.30
2019-03-30T07:43:58.078Z,18.60
2019-03-30T07:46:29.582Z,17.50
2019-03-30T07:49:01.186Z,18.30
2019-03-30T07:54:04.853Z,19.80
2019-03-30T07:56:36.770Z,20.20
2019-03-30T07:59:08.373Z,21.20
2019-03-30T08:01:39.874Z,21.30
2019-03-30T08:04:12.186Z,21.70
2019-03-30T08:06:44.270Z,21.60
2019-03-30T08:09:16.386Z,21.60
2019-03-30T08:11:48.459Z,21.70
2019-03-30T08:14:19.971Z,22.80
2019-03-30T08:16:51.465Z,23.90
2019-03-30T08:19:23.674Z,23.80
2019-03-30T08:24:27.610Z,23.40
2019-03-30T08:26:59.194Z,22.90
2019-03-30T08:32:02.322Z,23.20
2019-03-30T08:34:34.418Z,23.70
2019-03-30T08:37:06.503Z,24.00
2019-03-30T08:39:38.582Z,24.30
2019-03-30T08:42:10.662Z,23.80
2019-03-30T08:44:44.470Z,23.80
2019-03-30T08:47:16.545Z,24.30
2019-03-30T08:49:48.656Z,25.10
2019-03-30T08:52:20.758Z,25.20
2019-03-30T08:57:23.762Z,25.70
2019-03-30T08:59:55.862Z,25.10
2019-03-30T09:02:27.937Z,25.50
2019-03-30T09:04:59.949Z,26.40
2019-03-30T09:10:03.040Z,26.10
2019-03-30T09:15:06.881Z,25.60
2019-03-30T09:17:38.982Z,25.10
2019-03-30T09:20:11.082Z,25.20
2019-03-30T09:22:43.197Z,24.50
2019-03-30T09:25:15.289Z,25.50
2019-03-30T09:27:47.386Z,26.30
2019-03-30T09:30:19.574Z,27.10
2019-03-30T09:32:51.761Z,26.60
2019-03-30T09:35:23.857Z,27.20
2019-03-30T09:37:55.974Z,28.10
2019-03-30T09:40:28.053Z,29.20
2019-03-30T09:43:00.102Z,28.30
2019-03-30T09:45:32.187Z,29.10
2019-03-30T09:48:04.316Z,29.00
2019-03-30T09:53:07.405Z,30.50
2019-03-30T09:55:39.531Z,29.90
2019-03-30T09:58:11.642Z,29.70
2019-03-30T10:00:43.662Z,28.20
2019-03-30T10:03:15.850Z,28.60
2019-03-30T10:05:47.937Z,30.40
2019-03-30T10:08:20.089Z,30.10
2019-03-30T10:10:52.171Z,30.60
2019-03-30T10:13:24.386Z,31.10
2019-03-30T10:15:56.478Z,30.90
2019-03-30T10:20:59.482Z,30.70
2019-03-30T10:23:31.589Z,31.90
2019-03-30T10:26:03.599Z,29.90
2019-03-30T10:28:36.677Z,30.40
2019-03-30T10:31:08.678Z,31.10
2019-03-30T10:33:40.757Z,32.40
2019-03-30T10:36:12.771Z,32.00
2019-03-30T10:38:44.850Z,31.40
2019-03-30T10:41:16.970Z,30.30
2019-03-30T10:43:49.050Z,30.90
2019-03-30T10:48:52.087Z,31.70
2019-03-30T10:51:24.198Z,31.50
2019-03-30T10:53:56.278Z,32.80
2019-03-30T10:56:29.334Z,32.50
2019-03-30T10:59:01.414Z,32.80
2019-03-30T11:01:33.498Z,33.60
2019-03-30T11:04:05.589Z,34.20
2019-03-30T11:06:37.617Z,33.10
2019-03-30T11:09:09.780Z,32.80
2019-03-30T11:11:41.898Z,33.60
2019-03-30T11:14:14.041Z,33.40
2019-03-30T11:16:46.075Z,33.10
2019-03-30T11:19:18.155Z,33.90
2019-03-30T11:21:50.229Z,33.10
2019-03-30T11:24:22.406Z,33.80
2019-03-30T11:29:25.603Z,34.50
2019-03-30T11:31:57.692Z,34.60
2019-03-30T11:34:30.102Z,34.10
2019-03-30T11:37:02.191Z,33.10
2019-03-30T11:39:34.293Z,33.70
2019-03-30T11:42:06.379Z,34.50
2019-03-30T11:44:38.490Z,34.60
2019-03-30T11:47:10.847Z,35.40
2019-03-30T11:49:42.958Z,35.30
2019-03-30T12:07:36.737Z,35.70
2019-03-30T12:38:54.693Z,32.50
2019-03-30T12:48:43.837Z,36.80
2019-03-30T12:59:20.071Z,33.60
2019-03-30T13:05:37.813Z,33.60
2019-03-30T13:36:41.360Z,32.70
2019-03-30T13:51:09.990Z,32.90
2019-03-30T13:53:42.371Z,33.10
2019-03-30T13:56:17.457Z,33.10
2019-03-30T13:58:48.266Z,33.60
2019-03-30T14:01:20.347Z,32.80
2019-03-30T14:03:52.466Z,33.20
2019-03-30T14:06:24.558Z,32.70
2019-03-30T14:08:56.665Z,30.40
2019-03-30T14:11:28.754Z,29.00
2019-03-30T14:14:00.875Z,28.20
2019-03-30T14:21:35.176Z,29.30
2019-03-30T14:24:07.270Z,28.90
2019-03-30T14:26:39.365Z,28.90
2019-03-30T14:29:11.425Z,27.20
2019-03-30T14:31:43.590Z,26.40
2019-03-30T14:34:16.162Z,26.70
2019-03-30T14:36:48.519Z,27.60
2019-03-30T14:39:20.896Z,27.40
2019-03-30T14:41:53.550Z,28.50
2019-03-30T14:44:25.851Z,29.40
2019-03-30T14:46:58.193Z,30.30
2019-03-30T14:49:30.494Z,30.30
2019-03-30T14:52:02.854Z,28.00
2019-03-30T14:54:35.130Z,26.60
2019-03-30T14:59:38.421Z,26.50
2019-03-30T15:02:10.733Z,27.90
2019-03-30T15:04:42.876Z,27.90
2019-03-30T15:07:14.974Z,27.10
2019-03-30T15:09:46.990Z,25.40
2019-03-30T15:14:49.959Z,24.60
2019-03-30T15:17:22.189Z,25.30
2019-03-30T15:19:53.938Z,25.00
2019-03-30T15:22:26.070Z,24.70
2019-03-30T15:24:57.745Z,24.50
2019-03-30T15:27:29.419Z,24.60
2019-03-30T15:30:01.537Z,23.70
2019-03-30T15:32:33.345Z,23.10
2019-03-30T15:35:05.351Z,22.60
2019-03-30T15:37:38.293Z,22.30
2019-03-30T15:40:10.002Z,22.00
2019-03-30T15:42:42.022Z,21.60
2019-03-30T15:47:44.230Z,21.50
2019-03-30T15:52:46.429Z,21.40
2019-03-30T15:55:18.150Z,21.50
2019-03-30T15:57:49.650Z,21.00
2019-03-30T16:00:21.374Z,21.20
2019-03-30T16:02:52.875Z,20.80
2019-03-30T16:05:24.422Z,20.40
2019-03-30T16:07:55.946Z,20.60
2019-03-30T16:10:27.614Z,20.10
2019-03-30T16:12:59.118Z,20.30
2019-03-30T16:15:30.942Z,19.80
2019-03-30T16:18:02.531Z,19.30
2019-03-30T16:20:34.596Z,18.60
2019-03-30T16:23:06.094Z,17.90
2019-03-30T16:25:37.645Z,17.50
2019-03-30T16:28:09.219Z,17.10
2019-03-30T16:30:40.762Z,16.80
2019-03-30T16:33:12.263Z,16.50
2019-03-30T16:35:43.802Z,16.20
2019-03-30T16:40:45.793Z,15.90
2019-03-30T16:43:17.484Z,15.60
2019-03-30T16:45:49.277Z,15.40
2019-03-30T16:48:20.997Z,15.20
2019-03-30T16:50:52.758Z,15.00
2019-03-30T16:53:24.506Z,15.00
2019-03-30T16:55:56.278Z,14.70
2019-03-30T16:58:28.047Z,14.50
2019-03-30T17:00:59.782Z,14.40
2019-03-30T17:03:31.574Z,14.20
2019-03-30T17:06:04.327Z,14.00
2019-03-30T17:08:36.086Z,13.80
2019-03-30T17:11:07.750Z,13.50
2019-03-30T17:13:39.622Z,13.30
2019-03-30T17:16:11.390Z,13.20
2019-03-30T17:18:43.169Z,13.00
2019-03-30T17:23:45.338Z,12.60
2019-03-30T17:26:17.579Z,12.50
2019-03-30T17:28:49.646Z,12.30
2019-03-30T17:31:21.409Z,12.20
2019-03-30T17:33:53.149Z,12.10
2019-03-30T17:36:24.942Z,11.90
2019-03-30T17:38:56.895Z,11.80
2019-03-30T17:41:28.563Z,11.60
2019-03-30T17:44:00.334Z,11.40
2019-03-30T17:46:32.071Z,11.30
2019-03-30T17:49:03.686Z,11.20
2019-03-30T17:51:35.505Z,11.10
2019-03-30T17:54:07.018Z,11.10
2019-03-30T17:56:38.542Z,11.00
2019-03-30T17:59:10.050Z,11.00
2019-03-30T18:01:41.519Z,11.10
2019-03-30T18:04:13.121Z,11.00
2019-03-30T18:06:44.678Z,10.90
2019-03-30T18:09:16.194Z,10.80
2019-03-30T18:11:47.679Z,10.70
2019-03-30T18:14:19.178Z,10.70
2019-03-30T18:19:21.002Z,10.60
2019-03-30T18:21:52.623Z,10.60
2019-03-30T18:24:24.153Z,10.50
2019-03-30T18:26:55.685Z,10.50
2019-03-30T18:29:27.127Z,10.40
2019-03-30T18:31:58.761Z,10.40
2019-03-30T18:34:30.955Z,10.30
2019-03-30T18:37:03.480Z,10.30
2019-03-30T18:39:35.557Z,10.20
2019-03-30T18:42:07.122Z,10.20
2019-03-30T18:44:38.831Z,10.10
2019-03-30T18:47:10.775Z,10.10
2019-03-30T18:49:42.821Z,10.00
2019-03-30T18:52:15.401Z,9.90
2019-03-30T18:54:48.022Z,9.90
2019-03-30T18:57:19.622Z,9.80
2019-03-30T18:59:51.434Z,9.70
2019-03-30T19:02:22.942Z,9.70
2019-03-30T19:04:54.490Z,9.60
2019-03-30T19:07:26.097Z,9.50
2019-03-30T19:09:57.681Z,9.50
2019-03-30T19:12:29.228Z,9.40
2019-03-30T19:15:02.046Z,9.40
2019-03-30T19:20:05.648Z,9.40
2019-03-30T19:22:37.675Z,9.40
2019-03-30T19:25:10.003Z,9.40
2019-03-30T19:27:42.637Z,9.30
2019-03-30T19:30:15.008Z,9.40
2019-03-30T19:32:46.881Z,9.40
2019-03-30T19:35:18.489Z,9.40
2019-03-30T19:37:49.994Z,9.40
2019-03-30T19:40:21.918Z,9.40
2019-03-30T19:42:53.450Z,9.40
2019-03-30T19:45:25.083Z,9.40
2019-03-30T19:47:56.616Z,9.40
2019-03-30T19:50:28.614Z,9.40
2019-03-30T19:53:00.186Z,9.40
2019-03-30T19:55:31.855Z,9.30
2019-03-30T19:58:03.543Z,9.30
2019-03-30T20:00:38.576Z,9.20
2019-03-30T20:03:09.639Z,9.10
2019-03-30T20:05:44.501Z,9.10
2019-03-30T20:08:14.939Z,8.90
2019-03-30T20:10:47.643Z,8.90
2019-03-30T20:13:19.190Z,8.90
2019-03-30T20:15:50.868Z,9.00
2019-03-30T20:18:22.458Z,8.90
2019-03-30T20:20:53.985Z,8.80
2019-03-30T20:23:25.582Z,8.60
2019-03-30T20:25:57.098Z,8.40
2019-03-30T20:28:28.597Z,8.10
2019-03-30T20:31:00.352Z,8.00
2019-03-30T20:33:31.889Z,7.80
2019-03-30T20:36:03.477Z,7.70
2019-03-30T20:38:35.011Z,7.60
2019-03-30T20:41:06.514Z,7.70
2019-03-30T20:43:38.143Z,7.60
2019-03-30T20:46:09.638Z,7.60
2019-03-30T20:48:41.646Z,7.50
2019-03-30T20:51:13.281Z,7.50
2019-03-30T20:53:44.884Z,7.50
2019-03-30T20:56:16.405Z,7.50
2019-03-30T21:01:18.446Z,7.30
2019-03-30T21:03:49.907Z,7.30
2019-03-30T21:06:21.402Z,7.20
2019-03-30T21:08:53.262Z,7.20
2019-03-30T21:11:25.491Z,7.10
2019-03-30T21:13:57.071Z,7.10
2019-03-30T21:16:28.582Z,7.10
2019-03-30T21:19:00.082Z,7.10
2019-03-30T21:21:31.610Z,7.10
2019-03-30T21:24:03.333Z,7.10
2019-03-30T21:26:35.210Z,7.10
2019-03-30T21:29:06.800Z,7.10
2019-03-30T21:31:38.386Z,7.10
2019-03-30T21:34:09.914Z,7.10
2019-03-30T21:39:12.312Z,7.00
2019-03-30T21:41:44.202Z,7.00
2019-03-30T21:44:21.867Z,7.00
2019-03-30T21:46:48.846Z,6.90
2019-03-30T21:49:20.786Z,6.80
2019-03-30T21:51:52.297Z,6.80
2019-03-30T21:54:23.849Z,6.70
2019-03-30T21:56:55.359Z,6.70
2019-03-30T22:01:57.451Z,6.60
2019-03-30T22:04:29.027Z,6.50
2019-03-30T22:07:01.129Z,6.50
2019-03-30T22:09:32.698Z,6.50
2019-03-30T22:12:04.242Z,6.40
2019-03-30T22:14:35.756Z,6.40
2019-03-30T22:19:37.882Z,6.30
2019-03-30T22:22:28.167Z,6.30
2019-03-30T22:24:59.704Z,6.30
2019-03-30T22:27:31.202Z,6.30
2019-03-30T22:30:02.766Z,6.30
2019-03-30T22:32:34.343Z,6.30
2019-03-30T22:35:06.166Z,6.20
2019-03-30T22:37:37.662Z,6.20
2019-03-30T22:40:09.480Z,6.20
2019-03-30T22:42:40.978Z,6.30
2019-03-30T22:45:12.705Z,6.40
2019-03-30T22:47:44.569Z,6.40
2019-03-30T22:50:16.198Z,6.40
2019-03-30T22:52:47.731Z,6.40
2019-03-30T22:55:20.321Z,6.40
2019-03-30T22:57:51.960Z,6.50
2019-03-30T23:00:41.066Z,6.40
2019-03-30T23:03:14.301Z,6.50
2019-03-30T23:05:45.829Z,6.40
2019-03-30T23:08:17.314Z,6.30
2019-03-30T23:10:49.107Z,6.20
2019-03-30T23:13:20.612Z,6.10
2019-03-30T23:15:52.209Z,6.10
2019-03-30T23:18:24.179Z,6.10
2019-03-30T23:20:55.922Z,6.10
2019-03-30T23:23:27.657Z,6.10
2019-03-30T23:25:59.430Z,6.00
2019-03-30T23:28:31.271Z,6.00
2019-03-30T23:31:03.042Z,6.00
2019-03-30T23:33:34.786Z,6.00
2019-03-30T23:36:06.539Z,6.00
2019-03-30T23:38:38.538Z,6.00
2019-03-30T23:41:10.382Z,5.90
2019-03-30T23:43:42.431Z,5.90
2019-03-30T23:46:14.235Z,5.90
2019-03-30T23:48:46.270Z,5.90
2019-03-30T23:51:18.047Z,5.80
2019-03-30T23:53:49.805Z,5.80
2019-03-30T23:56:25.155Z,5.80
2019-03-30T23:58:56.878Z,5.90
